sensor_id;sensor_type;location;lat;lon;timestamp;temperature;humidity
40153;DHT22;26371;56.992;23.912;2023-09-19T00:02:04;15.80;99.90
40153;DHT22;26371;56.992;23.912;2023-09-19T00:04:35;15.80;99.90
40153;DHT22;26371;56.992;23.912;2023-09-19T00:07:06;15.80;99.90
40153;DHT22;26371;56.992;23.912;2023-09-19T00:09:36;15.80;99.90
40153;DHT22;26371;56.992;23.912;2023-09-19T00:12:05;15.80;99.90
40153;DHT22;26371;56.992;23.912;2023-09-19T00:14:33;15.80;99.90
40153;DHT22;26371;56.992;23.912;2023-09-19T00:17:04;15.90;99.90
40153;DHT22;26371;56.992;23.912;2023-09-19T00:19:35;15.90;99.90
40153;DHT22;26371;56.992;23.912;2023-09-19T00:22:04;15.80;99.90
40153;DHT22;26371;56.992;23.912;2023-09-19T00:24:33;15.80;99.90
40153;DHT22;26371;56.992;23.912;2023-09-19T00:27:01;15.80;99.90
40153;DHT22;26371;56.992;23.912;2023-09-19T00:29:30;15.80;99.90
40153;DHT22;26371;56.992;23.912;2023-09-19T00:31:59;15.80;99.90
40153;DHT22;26371;56.992;23.912;2023-09-19T00:34:32;15.80;99.90
40153;DHT22;26371;56.992;23.912;2023-09-19T00:37:01;15.90;99.90
40153;DHT22;26371;56.992;23.912;2023-09-19T00:39:30;15.90;99.90
40153;DHT22;26371;56.992;23.912;2023-09-19T00:44:32;15.90;99.90
40153;DHT22;26371;56.992;23.912;2023-09-19T00:47:01;15.90;99.90
40153;DHT22;26371;56.992;23.912;2023-09-19T00:49:31;15.90;99.90
40153;DHT22;26371;56.992;23.912;2023-09-19T00:52:00;15.90;99.90
40153;DHT22;26371;56.992;23.912;2023-09-19T00:54:31;15.90;99.90
40153;DHT22;26371;56.992;23.912;2023-09-19T00:57:02;16.00;99.90
40153;DHT22;26371;56.992;23.912;2023-09-19T00:59:31;16.00;99.90
40153;DHT22;26371;56.992;23.912;2023-09-19T01:01:59;16.00;99.90
40153;DHT22;26371;56.992;23.912;2023-09-19T01:04:33;16.00;99.90
40153;DHT22;26371;56.992;23.912;2023-09-19T01:07:02;15.90;99.90
40153;DHT22;26371;56.992;23.912;2023-09-19T01:09:31;15.80;99.90
40153;DHT22;26371;56.992;23.912;2023-09-19T01:12:02;16.00;99.90
40153;DHT22;26371;56.992;23.912;2023-09-19T01:14:34;16.00;99.90
40153;DHT22;26371;56.992;23.912;2023-09-19T01:17:08;16.00;99.90
40153;DHT22;26371;56.992;23.912;2023-09-19T04:59:00;16.60;99.90
40153;DHT22;26371;56.992;23.912;2023-09-19T05:01:29;16.60;99.90
40153;DHT22;26371;56.992;23.912;2023-09-19T05:03:58;16.60;99.90
40153;DHT22;26371;56.992;23.912;2023-09-19T05:06:26;16.50;99.90
40153;DHT22;26371;56.992;23.912;2023-09-19T05:08:55;16.60;99.90
40153;DHT22;26371;56.992;23.912;2023-09-19T05:11:23;16.60;99.90
40153;DHT22;26371;56.992;23.912;2023-09-19T05:13:51;16.50;99.90
40153;DHT22;26371;56.992;23.912;2023-09-19T05:16:22;16.50;99.90
40153;DHT22;26371;56.992;23.912;2023-09-19T05:18:51;16.50;99.90
40153;DHT22;26371;56.992;23.912;2023-09-19T05:21:19;16.50;99.90
40153;DHT22;26371;56.992;23.912;2023-09-19T05:23:47;16.60;99.90
40153;DHT22;26371;56.992;23.912;2023-09-19T05:26:16;16.60;99.90
40153;DHT22;26371;56.992;23.912;2023-09-19T05:28:45;16.60;99.90
40153;DHT22;26371;56.992;23.912;2023-09-19T05:31:15;16.60;99.90
40153;DHT22;26371;56.992;23.912;2023-09-19T05:33:45;16.60;99.90
40153;DHT22;26371;56.992;23.912;2023-09-19T05:36:13;16.60;99.90
40153;DHT22;26371;56.992;23.912;2023-09-19T05:38:43;16.60;99.90
40153;DHT22;26371;56.992;23.912;2023-09-19T05:41:12;16.70;99.90
40153;DHT22;26371;56.992;23.912;2023-09-19T05:43:41;16.70;99.90
40153;DHT22;26371;56.992;23.912;2023-09-19T05:46:10;16.70;99.90
40153;DHT22;26371;56.992;23.912;2023-09-19T05:48:39;16.80;99.90
40153;DHT22;26371;56.992;23.912;2023-09-19T05:51:09;16.80;99.90
40153;DHT22;26371;56.992;23.912;2023-09-19T05:53:38;16.80;99.90
40153;DHT22;26371;56.992;23.912;2023-09-19T05:56:06;16.90;99.90
40153;DHT22;26371;56.992;23.912;2023-09-19T05:58:36;16.90;99.90
40153;DHT22;26371;56.992;23.912;2023-09-19T06:01:05;16.90;99.90
40153;DHT22;26371;56.992;23.912;2023-09-19T06:23:01;17.10;99.90
40153;DHT22;26371;56.992;23.912;2023-09-19T06:25:31;17.50;99.90
40153;DHT22;26371;56.992;23.912;2023-09-19T06:27:59;17.50;99.90
40153;DHT22;26371;56.992;23.912;2023-09-19T06:30:32;17.60;99.90
40153;DHT22;26371;56.992;23.912;2023-09-19T06:33:02;17.60;99.90
40153;DHT22;26371;56.992;23.912;2023-09-19T06:35:31;17.70;99.90
40153;DHT22;26371;56.992;23.912;2023-09-19T06:38:04;17.80;99.90
40153;DHT22;26371;56.992;23.912;2023-09-19T06:40:33;17.80;99.90
40153;DHT22;26371;56.992;23.912;2023-09-19T06:43:03;17.90;99.90
40153;DHT22;26371;56.992;23.912;2023-09-19T06:45:33;18.00;99.90
40153;DHT22;26371;56.992;23.912;2023-09-19T06:48:02;18.00;99.90
40153;DHT22;26371;56.992;23.912;2023-09-19T06:50:30;18.00;99.90
40153;DHT22;26371;56.992;23.912;2023-09-19T06:53:04;18.10;99.90
40153;DHT22;26371;56.992;23.912;2023-09-19T06:55:32;18.10;99.90
40153;DHT22;26371;56.992;23.912;2023-09-19T06:58:01;18.20;99.90
40153;DHT22;26371;56.992;23.912;2023-09-19T07:00:30;18.30;99.90
40153;DHT22;26371;56.992;23.912;2023-09-19T07:03:05;18.30;99.90
40153;DHT22;26371;56.992;23.912;2023-09-19T07:05:39;18.30;99.90
40153;DHT22;26371;56.992;23.912;2023-09-19T07:08:10;18.40;99.90
40153;DHT22;26371;56.992;23.912;2023-09-19T07:10:40;18.40;99.90
40153;DHT22;26371;56.992;23.912;2023-09-19T07:13:16;18.50;99.90
40153;DHT22;26371;56.992;23.912;2023-09-19T07:15:45;18.50;99.90
40153;DHT22;26371;56.992;23.912;2023-09-19T07:18:17;18.60;99.90
40153;DHT22;26371;56.992;23.912;2023-09-19T07:20:47;18.60;99.90
40153;DHT22;26371;56.992;23.912;2023-09-19T07:23:21;18.70;99.90
40153;DHT22;26371;56.992;23.912;2023-09-19T07:25:51;18.80;99.90
40153;DHT22;26371;56.992;23.912;2023-09-19T07:28:19;18.80;99.90
40153;DHT22;26371;56.992;23.912;2023-09-19T07:30:57;18.90;99.90
40153;DHT22;26371;56.992;23.912;2023-09-19T07:33:44;18.90;99.90
40153;DHT22;26371;56.992;23.912;2023-09-19T07:36:18;19.10;99.90
40153;DHT22;26371;56.992;23.912;2023-09-19T07:38:48;19.20;99.90
40153;DHT22;26371;56.992;23.912;2023-09-19T07:41:18;19.20;99.90
40153;DHT22;26371;56.992;23.912;2023-09-19T07:43:46;19.30;99.90
40153;DHT22;26371;56.992;23.912;2023-09-19T07:46:15;19.40;99.90
40153;DHT22;26371;56.992;23.912;2023-09-19T07:48:43;19.50;99.90
40153;DHT22;26371;56.992;23.912;2023-09-19T07:51:16;19.50;99.90
40153;DHT22;26371;56.992;23.912;2023-09-19T07:53:48;19.60;99.90
40153;DHT22;26371;56.992;23.912;2023-09-19T07:56:17;19.70;99.90
40153;DHT22;26371;56.992;23.912;2023-09-19T07:58:47;19.80;99.90
40153;DHT22;26371;56.992;23.912;2023-09-19T08:01:16;19.80;99.90
40153;DHT22;26371;56.992;23.912;2023-09-19T08:03:44;19.90;99.90
40153;DHT22;26371;56.992;23.912;2023-09-19T08:06:13;20.00;99.90
40153;DHT22;26371;56.992;23.912;2023-09-19T08:08:42;20.20;99.90
40153;DHT22;26371;56.992;23.912;2023-09-19T08:11:12;20.20;99.90
40153;DHT22;26371;56.992;23.912;2023-09-19T08:13:42;20.30;99.90
40153;DHT22;26371;56.992;23.912;2023-09-19T08:16:13;20.40;99.90
40153;DHT22;26371;56.992;23.912;2023-09-19T08:18:42;20.50;99.90
40153;DHT22;26371;56.992;23.912;2023-09-19T08:21:12;20.50;99.90
40153;DHT22;26371;56.992;23.912;2023-09-19T08:23:44;20.60;99.90
40153;DHT22;26371;56.992;23.912;2023-09-19T08:26:14;20.70;99.90
40153;DHT22;26371;56.992;23.912;2023-09-19T08:28:42;20.60;99.90
40153;DHT22;26371;56.992;23.912;2023-09-19T08:31:11;20.70;99.90
40153;DHT22;26371;56.992;23.912;2023-09-19T08:33:39;20.70;99.90
40153;DHT22;26371;56.992;23.912;2023-09-19T08:36:09;20.70;99.90
40153;DHT22;26371;56.992;23.912;2023-09-19T08:38:39;20.80;99.90
40153;DHT22;26371;56.992;23.912;2023-09-19T08:41:08;20.80;99.90
40153;DHT22;26371;56.992;23.912;2023-09-19T08:43:38;20.80;99.90
40153;DHT22;26371;56.992;23.912;2023-09-19T08:46:10;20.90;99.90
40153;DHT22;26371;56.992;23.912;2023-09-19T08:48:45;20.90;99.90
40153;DHT22;26371;56.992;23.912;2023-09-19T08:51:20;21.00;99.90
40153;DHT22;26371;56.992;23.912;2023-09-19T08:53:51;21.00;99.90
40153;DHT22;26371;56.992;23.912;2023-09-19T08:56:25;21.10;99.90
40153;DHT22;26371;56.992;23.912;2023-09-19T08:58:59;21.10;99.90
40153;DHT22;26371;56.992;23.912;2023-09-19T09:01:29;21.20;99.90
40153;DHT22;26371;56.992;23.912;2023-09-19T09:04:01;21.10;99.90
40153;DHT22;26371;56.992;23.912;2023-09-19T09:06:31;21.10;99.90
40153;DHT22;26371;56.992;23.912;2023-09-19T09:09:00;21.10;99.90
40153;DHT22;26371;56.992;23.912;2023-09-19T09:11:33;21.10;99.90
40153;DHT22;26371;56.992;23.912;2023-09-19T09:14:03;21.10;99.90
40153;DHT22;26371;56.992;23.912;2023-09-19T09:16:31;21.10;99.90
40153;DHT22;26371;56.992;23.912;2023-09-19T09:19:00;21.10;99.90
40153;DHT22;26371;56.992;23.912;2023-09-19T09:21:29;21.20;99.90
40153;DHT22;26371;56.992;23.912;2023-09-19T09:24:25;21.30;99.90
40153;DHT22;26371;56.992;23.912;2023-09-19T09:26:55;21.20;99.90
40153;DHT22;26371;56.992;23.912;2023-09-19T09:29:44;21.20;99.90
40153;DHT22;26371;56.992;23.912;2023-09-19T09:32:21;21.20;99.90
40153;DHT22;26371;56.992;23.912;2023-09-19T09:34:52;21.20;99.90
40153;DHT22;26371;56.992;23.912;2023-09-19T09:37:26;21.30;99.90
40153;DHT22;26371;56.992;23.912;2023-09-19T09:39:59;21.30;99.90
40153;DHT22;26371;56.992;23.912;2023-09-19T09:42:46;21.40;99.90
40153;DHT22;26371;56.992;23.912;2023-09-19T09:45:22;21.50;99.90
40153;DHT22;26371;56.992;23.912;2023-09-19T09:47:56;21.50;99.90
40153;DHT22;26371;56.992;23.912;2023-09-19T09:53:20;21.70;99.90
40153;DHT22;26371;56.992;23.912;2023-09-19T09:56:19;21.80;99.90
40153;DHT22;26371;56.992;23.912;2023-09-19T09:59:14;21.80;99.90
40153;DHT22;26371;56.992;23.912;2023-09-19T10:01:49;21.80;99.90
40153;DHT22;26371;56.992;23.912;2023-09-19T10:04:28;21.90;99.90
40153;DHT22;26371;56.992;23.912;2023-09-19T10:06:59;22.00;99.90
40153;DHT22;26371;56.992;23.912;2023-09-19T10:09:45;22.00;99.90
40153;DHT22;26371;56.992;23.912;2023-09-19T10:12:15;22.00;99.90
40153;DHT22;26371;56.992;23.912;2023-09-19T10:14:45;21.90;99.90
40153;DHT22;26371;56.992;23.912;2023-09-19T10:17:18;21.90;99.90
40153;DHT22;26371;56.992;23.912;2023-09-19T10:19:55;21.80;99.90
40153;DHT22;26371;56.992;23.912;2023-09-19T10:22:26;21.90;99.90
40153;DHT22;26371;56.992;23.912;2023-09-19T10:24:59;21.90;99.90
40153;DHT22;26371;56.992;23.912;2023-09-19T10:27:31;22.00;99.90
40153;DHT22;26371;56.992;23.912;2023-09-19T10:30:06;22.10;99.90
40153;DHT22;26371;56.992;23.912;2023-09-19T10:32:40;22.20;99.90
40153;DHT22;26371;56.992;23.912;2023-09-19T10:35:09;22.40;99.90
40153;DHT22;26371;56.992;23.912;2023-09-19T10:37:41;22.40;99.90
40153;DHT22;26371;56.992;23.912;2023-09-19T10:40:13;22.50;99.90
40153;DHT22;26371;56.992;23.912;2023-09-19T10:42:45;22.60;99.90
40153;DHT22;26371;56.992;23.912;2023-09-19T10:45:15;22.60;99.90
40153;DHT22;26371;56.992;23.912;2023-09-19T10:47:51;22.70;99.90
40153;DHT22;26371;56.992;23.912;2023-09-19T10:50:20;22.80;99.90
40153;DHT22;26371;56.992;23.912;2023-09-19T10:52:51;22.80;99.90
40153;DHT22;26371;56.992;23.912;2023-09-19T10:55:25;22.70;99.90
40153;DHT22;26371;56.992;23.912;2023-09-19T10:57:58;22.70;99.90
40153;DHT22;26371;56.992;23.912;2023-09-19T11:00:52;22.60;99.90
40153;DHT22;26371;56.992;23.912;2023-09-19T11:03:23;22.60;99.90
40153;DHT22;26371;56.992;23.912;2023-09-19T11:06:09;22.50;99.90
40153;DHT22;26371;56.992;23.912;2023-09-19T11:08:52;22.50;99.90
40153;DHT22;26371;56.992;23.912;2023-09-19T11:11:42;22.40;99.90
40153;DHT22;26371;56.992;23.912;2023-09-19T11:14:29;22.40;99.90
40153;DHT22;26371;56.992;23.912;2023-09-19T11:20:23;22.40;99.90
40153;DHT22;26371;56.992;23.912;2023-09-19T11:23:20;22.40;99.90
40153;DHT22;26371;56.992;23.912;2023-09-19T11:25:55;22.40;99.90
40153;DHT22;26371;56.992;23.912;2023-09-19T11:28:33;22.40;99.90
40153;DHT22;26371;56.992;23.912;2023-09-19T11:34:46;22.50;99.90
40153;DHT22;26371;56.992;23.912;2023-09-19T11:40:56;22.50;99.90
40153;DHT22;26371;56.992;23.912;2023-09-19T11:43:38;22.50;99.90
40153;DHT22;26371;56.992;23.912;2023-09-19T11:46:08;22.50;99.90
40153;DHT22;26371;56.992;23.912;2023-09-19T11:48:39;22.50;99.90
40153;DHT22;26371;56.992;23.912;2023-09-19T11:51:15;22.50;99.90
40153;DHT22;26371;56.992;23.912;2023-09-19T11:53:51;22.50;99.90
40153;DHT22;26371;56.992;23.912;2023-09-19T11:56:23;22.40;99.90
40153;DHT22;26371;56.992;23.912;2023-09-19T11:58:57;22.40;99.90
40153;DHT22;26371;56.992;23.912;2023-09-19T12:01:30;22.40;99.90
40153;DHT22;26371;56.992;23.912;2023-09-19T12:04:02;22.40;99.90
40153;DHT22;26371;56.992;23.912;2023-09-19T12:06:34;22.30;99.90
40153;DHT22;26371;56.992;23.912;2023-09-19T12:09:06;22.30;99.90
40153;DHT22;26371;56.992;23.912;2023-09-19T12:11:46;22.30;99.90
40153;DHT22;26371;56.992;23.912;2023-09-19T12:14:22;22.20;99.90
40153;DHT22;26371;56.992;23.912;2023-09-19T12:16:54;22.20;99.90
40153;DHT22;26371;56.992;23.912;2023-09-19T12:19:24;22.20;99.90
40153;DHT22;26371;56.992;23.912;2023-09-19T12:21:56;22.20;99.90
40153;DHT22;26371;56.992;23.912;2023-09-19T12:24:27;22.10;99.90
40153;DHT22;26371;56.992;23.912;2023-09-19T12:27:04;22.00;99.90
40153;DHT22;26371;56.992;23.912;2023-09-19T12:29:42;21.90;99.90
40153;DHT22;26371;56.992;23.912;2023-09-19T12:32:12;21.90;99.90
40153;DHT22;26371;56.992;23.912;2023-09-19T12:34:42;21.80;99.90
40153;DHT22;26371;56.992;23.912;2023-09-19T12:37:12;21.80;99.90
40153;DHT22;26371;56.992;23.912;2023-09-19T12:39:44;21.70;99.90
40153;DHT22;26371;56.992;23.912;2023-09-19T12:42:19;21.40;99.90
40153;DHT22;26371;56.992;23.912;2023-09-19T12:44:48;21.30;99.90
40153;DHT22;26371;56.992;23.912;2023-09-19T12:47:18;21.20;99.90
40153;DHT22;26371;56.992;23.912;2023-09-19T12:50:07;21.10;99.90
40153;DHT22;26371;56.992;23.912;2023-09-19T12:52:42;21.00;99.90
40153;DHT22;26371;56.992;23.912;2023-09-19T12:55:21;20.90;99.90
40153;DHT22;26371;56.992;23.912;2023-09-19T12:58:07;20.90;99.90
40153;DHT22;26371;56.992;23.912;2023-09-19T13:00:38;20.80;99.90
40153;DHT22;26371;56.992;23.912;2023-09-19T13:03:18;20.70;99.90
40153;DHT22;26371;56.992;23.912;2023-09-19T13:06:00;20.50;99.90
40153;DHT22;26371;56.992;23.912;2023-09-19T13:08:32;20.40;99.90
40153;DHT22;26371;56.992;23.912;2023-09-19T13:11:09;20.30;99.90
40153;DHT22;26371;56.992;23.912;2023-09-19T13:13:42;20.10;99.90
40153;DHT22;26371;56.992;23.912;2023-09-19T13:16:16;20.00;99.90
40153;DHT22;26371;56.992;23.912;2023-09-19T13:18:50;19.70;99.90
40153;DHT22;26371;56.992;23.912;2023-09-19T13:21:31;19.60;99.90
40153;DHT22;26371;56.992;23.912;2023-09-19T13:24:21;19.40;99.90
40153;DHT22;26371;56.992;23.912;2023-09-19T13:26:53;19.40;99.90
40153;DHT22;26371;56.992;23.912;2023-09-19T13:29:23;19.40;99.90
40153;DHT22;26371;56.992;23.912;2023-09-19T13:31:52;19.20;99.90
40153;DHT22;26371;56.992;23.912;2023-09-19T13:34:21;19.10;99.90
40153;DHT22;26371;56.992;23.912;2023-09-19T13:36:50;19.00;99.90
40153;DHT22;26371;56.992;23.912;2023-09-19T13:39:18;19.00;99.90
40153;DHT22;26371;56.992;23.912;2023-09-19T13:41:47;19.10;99.90
40153;DHT22;26371;56.992;23.912;2023-09-19T13:44:16;19.00;99.90
40153;DHT22;26371;56.992;23.912;2023-09-19T13:46:46;19.00;99.90
40153;DHT22;26371;56.992;23.912;2023-09-19T13:49:15;19.00;99.90
40153;DHT22;26371;56.992;23.912;2023-09-19T13:51:48;19.00;99.90
40153;DHT22;26371;56.992;23.912;2023-09-19T13:54:17;19.00;99.90
40153;DHT22;26371;56.992;23.912;2023-09-19T13:56:48;19.00;99.90
40153;DHT22;26371;56.992;23.912;2023-09-19T13:59:16;18.90;99.90
40153;DHT22;26371;56.992;23.912;2023-09-19T14:01:46;18.90;99.90
40153;DHT22;26371;56.992;23.912;2023-09-19T14:04:15;18.90;99.90
40153;DHT22;26371;56.992;23.912;2023-09-19T14:06:44;19.00;99.90
40153;DHT22;26371;56.992;23.912;2023-09-19T14:09:13;18.90;99.90
40153;DHT22;26371;56.992;23.912;2023-09-19T14:11:46;18.90;99.90
40153;DHT22;26371;56.992;23.912;2023-09-19T14:14:16;18.90;99.90
40153;DHT22;26371;56.992;23.912;2023-09-19T14:16:47;18.90;99.90
40153;DHT22;26371;56.992;23.912;2023-09-19T14:19:16;18.90;99.90
40153;DHT22;26371;56.992;23.912;2023-09-19T14:21:44;18.90;99.90
40153;DHT22;26371;56.992;23.912;2023-09-19T14:24:16;18.90;99.90
40153;DHT22;26371;56.992;23.912;2023-09-19T14:26:45;18.80;99.90
40153;DHT22;26371;56.992;23.912;2023-09-19T14:29:14;18.80;99.90
40153;DHT22;26371;56.992;23.912;2023-09-19T14:31:43;18.90;99.90
40153;DHT22;26371;56.992;23.912;2023-09-19T14:34:13;18.90;99.90
40153;DHT22;26371;56.992;23.912;2023-09-19T14:36:42;18.90;99.90
40153;DHT22;26371;56.992;23.912;2023-09-19T14:39:10;18.80;99.90
40153;DHT22;26371;56.992;23.912;2023-09-19T14:41:39;18.80;99.90
40153;DHT22;26371;56.992;23.912;2023-09-19T14:44:07;18.80;99.90
40153;DHT22;26371;56.992;23.912;2023-09-19T14:46:38;18.80;99.90
40153;DHT22;26371;56.992;23.912;2023-09-19T14:49:07;18.70;99.90
40153;DHT22;26371;56.992;23.912;2023-09-19T14:51:39;18.80;99.90
40153;DHT22;26371;56.992;23.912;2023-09-19T14:54:08;18.70;99.90
40153;DHT22;26371;56.992;23.912;2023-09-19T14:56:36;18.70;99.90
40153;DHT22;26371;56.992;23.912;2023-09-19T14:59:05;18.70;99.90
40153;DHT22;26371;56.992;23.912;2023-09-19T15:01:34;18.60;99.90
40153;DHT22;26371;56.992;23.912;2023-09-19T15:04:03;18.60;99.90
40153;DHT22;26371;56.992;23.912;2023-09-19T15:06:32;18.60;99.90
40153;DHT22;26371;56.992;23.912;2023-09-19T15:09:02;18.60;99.90
40153;DHT22;26371;56.992;23.912;2023-09-19T15:11:32;18.60;99.90
40153;DHT22;26371;56.992;23.912;2023-09-19T15:14:00;18.60;99.90
40153;DHT22;26371;56.992;23.912;2023-09-19T15:16:30;18.60;99.90
40153;DHT22;26371;56.992;23.912;2023-09-19T15:18:59;18.70;99.90
40153;DHT22;26371;56.992;23.912;2023-09-19T15:21:28;18.70;99.90
40153;DHT22;26371;56.992;23.912;2023-09-19T15:23:57;18.70;99.90
40153;DHT22;26371;56.992;23.912;2023-09-19T15:26:27;18.70;99.90
40153;DHT22;26371;56.992;23.912;2023-09-19T15:28:56;18.70;99.90
40153;DHT22;26371;56.992;23.912;2023-09-19T15:31:24;18.60;99.90
40153;DHT22;26371;56.992;23.912;2023-09-19T15:33:53;18.60;99.90
40153;DHT22;26371;56.992;23.912;2023-09-19T15:36:22;18.60;99.90
40153;DHT22;26371;56.992;23.912;2023-09-19T15:39:01;18.50;99.90
40153;DHT22;26371;56.992;23.912;2023-09-19T15:41:33;18.50;99.90
40153;DHT22;26371;56.992;23.912;2023-09-19T15:44:03;18.50;99.90
40153;DHT22;26371;56.992;23.912;2023-09-19T15:46:33;18.50;99.90
40153;DHT22;26371;56.992;23.912;2023-09-19T15:49:02;18.40;99.90
40153;DHT22;26371;56.992;23.912;2023-09-19T15:51:31;18.40;99.90
40153;DHT22;26371;56.992;23.912;2023-09-19T15:54:00;18.40;99.90
40153;DHT22;26371;56.992;23.912;2023-09-19T15:56:34;18.40;99.90
40153;DHT22;26371;56.992;23.912;2023-09-19T15:59:04;18.50;99.90
40153;DHT22;26371;56.992;23.912;2023-09-19T16:01:32;18.40;99.90
40153;DHT22;26371;56.992;23.912;2023-09-19T16:04:01;18.40;99.90
40153;DHT22;26371;56.992;23.912;2023-09-19T16:06:31;18.50;99.90
40153;DHT22;26371;56.992;23.912;2023-09-19T16:08:59;18.50;99.90
40153;DHT22;26371;56.992;23.912;2023-09-19T16:11:33;18.50;99.90
40153;DHT22;26371;56.992;23.912;2023-09-19T16:14:04;18.50;99.90
40153;DHT22;26371;56.992;23.912;2023-09-19T16:16:33;18.50;99.90
40153;DHT22;26371;56.992;23.912;2023-09-19T16:19:04;18.50;99.90
40153;DHT22;26371;56.992;23.912;2023-09-19T16:21:38;18.40;99.90
40153;DHT22;26371;56.992;23.912;2023-09-19T16:24:08;18.30;99.90
40153;DHT22;26371;56.992;23.912;2023-09-19T16:26:38;18.30;99.90
40153;DHT22;26371;56.992;23.912;2023-09-19T16:29:08;18.30;99.90
40153;DHT22;26371;56.992;23.912;2023-09-19T16:31:37;18.30;99.90
40153;DHT22;26371;56.992;23.912;2023-09-19T16:34:06;18.30;99.90
40153;DHT22;26371;56.992;23.912;2023-09-19T16:36:36;18.30;99.90
40153;DHT22;26371;56.992;23.912;2023-09-19T16:39:05;18.20;99.90
40153;DHT22;26371;56.992;23.912;2023-09-19T16:41:34;18.20;99.90
40153;DHT22;26371;56.992;23.912;2023-09-19T16:44:04;18.20;99.90
40153;DHT22;26371;56.992;23.912;2023-09-19T16:46:37;18.20;99.90
40153;DHT22;26371;56.992;23.912;2023-09-19T16:49:06;18.20;99.90
40153;DHT22;26371;56.992;23.912;2023-09-19T16:51:34;18.10;99.90
40153;DHT22;26371;56.992;23.912;2023-09-19T16:54:05;18.00;99.90
40153;DHT22;26371;56.992;23.912;2023-09-19T16:56:37;18.00;99.90
40153;DHT22;26371;56.992;23.912;2023-09-19T16:59:06;18.00;99.90
40153;DHT22;26371;56.992;23.912;2023-09-19T17:01:39;18.00;99.90
40153;DHT22;26371;56.992;23.912;2023-09-19T17:04:14;17.90;99.90
40153;DHT22;26371;56.992;23.912;2023-09-19T17:06:43;17.80;99.90
40153;DHT22;26371;56.992;23.912;2023-09-19T17:09:16;17.80;99.90
40153;DHT22;26371;56.992;23.912;2023-09-19T17:11:46;17.70;99.90
40153;DHT22;26371;56.992;23.912;2023-09-19T17:14:15;17.70;99.90
40153;DHT22;26371;56.992;23.912;2023-09-19T17:16:46;17.60;99.90
40153;DHT22;26371;56.992;23.912;2023-09-19T17:19:16;17.60;99.90
40153;DHT22;26371;56.992;23.912;2023-09-19T17:21:45;17.50;99.90
40153;DHT22;26371;56.992;23.912;2023-09-19T17:24:14;17.40;99.90
40153;DHT22;26371;56.992;23.912;2023-09-19T17:26:43;17.40;99.90
40153;DHT22;26371;56.992;23.912;2023-09-19T17:29:13;17.40;99.90
40153;DHT22;26371;56.992;23.912;2023-09-19T17:31:42;17.30;99.90
40153;DHT22;26371;56.992;23.912;2023-09-19T17:34:12;17.20;99.90
40153;DHT22;26371;56.992;23.912;2023-09-19T17:36:43;17.20;99.90
40153;DHT22;26371;56.992;23.912;2023-09-19T17:39:13;17.10;99.90
40153;DHT22;26371;56.992;23.912;2023-09-19T17:41:43;17.00;99.90
40153;DHT22;26371;56.992;23.912;2023-09-19T17:44:11;17.00;99.90
40153;DHT22;26371;56.992;23.912;2023-09-19T17:46:40;17.00;99.90
40153;DHT22;26371;56.992;23.912;2023-09-19T17:49:09;16.90;99.90
40153;DHT22;26371;56.992;23.912;2023-09-19T17:51:40;16.80;99.90
40153;DHT22;26371;56.992;23.912;2023-09-19T17:54:09;16.80;99.90
40153;DHT22;26371;56.992;23.912;2023-09-19T17:56:38;16.70;99.90
40153;DHT22;26371;56.992;23.912;2023-09-19T17:59:07;16.60;99.90
40153;DHT22;26371;56.992;23.912;2023-09-19T18:01:35;16.50;99.90
40153;DHT22;26371;56.992;23.912;2023-09-19T18:04:04;16.50;99.90
40153;DHT22;26371;56.992;23.912;2023-09-19T18:06:35;16.50;99.90
40153;DHT22;26371;56.992;23.912;2023-09-19T18:09:06;16.40;99.90
40153;DHT22;26371;56.992;23.912;2023-09-19T18:11:35;16.40;99.90
40153;DHT22;26371;56.992;23.912;2023-09-19T18:14:03;16.40;99.90
40153;DHT22;26371;56.992;23.912;2023-09-19T18:16:32;16.30;99.90
40153;DHT22;26371;56.992;23.912;2023-09-19T18:19:01;16.30;99.90
40153;DHT22;26371;56.992;23.912;2023-09-19T18:21:34;16.30;99.90
40153;DHT22;26371;56.992;23.912;2023-09-19T18:24:11;16.20;99.90
40153;DHT22;26371;56.992;23.912;2023-09-19T18:26:49;16.20;99.90
40153;DHT22;26371;56.992;23.912;2023-09-19T18:29:18;16.20;99.90
40153;DHT22;26371;56.992;23.912;2023-09-19T18:31:47;16.10;99.90
40153;DHT22;26371;56.992;23.912;2023-09-19T18:34:16;16.10;99.90
40153;DHT22;26371;56.992;23.912;2023-09-19T18:36:45;16.10;99.90
40153;DHT22;26371;56.992;23.912;2023-09-19T18:39:15;16.00;99.90
40153;DHT22;26371;56.992;23.912;2023-09-19T18:41:48;16.00;99.90
40153;DHT22;26371;56.992;23.912;2023-09-19T18:44:19;15.90;99.90
40153;DHT22;26371;56.992;23.912;2023-09-19T18:46:47;15.90;99.90
40153;DHT22;26371;56.992;23.912;2023-09-19T18:49:16;15.80;99.90
40153;DHT22;26371;56.992;23.912;2023-09-19T18:51:44;15.80;99.90
40153;DHT22;26371;56.992;23.912;2023-09-19T18:54:16;15.80;99.90
40153;DHT22;26371;56.992;23.912;2023-09-19T18:56:44;15.80;99.90
40153;DHT22;26371;56.992;23.912;2023-09-19T18:59:14;15.80;99.90
40153;DHT22;26371;56.992;23.912;2023-09-19T19:01:43;15.80;99.90
40153;DHT22;26371;56.992;23.912;2023-09-19T19:04:13;15.70;99.90
40153;DHT22;26371;56.992;23.912;2023-09-19T19:06:44;15.70;99.90
40153;DHT22;26371;56.992;23.912;2023-09-19T19:09:13;15.70;99.90
40153;DHT22;26371;56.992;23.912;2023-09-19T19:11:43;15.70;99.90
40153;DHT22;26371;56.992;23.912;2023-09-19T19:14:12;15.60;99.90
40153;DHT22;26371;56.992;23.912;2023-09-19T19:16:41;15.60;99.90
40153;DHT22;26371;56.992;23.912;2023-09-19T19:19:11;15.60;99.90
40153;DHT22;26371;56.992;23.912;2023-09-19T19:21:41;15.60;99.90
40153;DHT22;26371;56.992;23.912;2023-09-19T19:24:09;15.60;99.90
40153;DHT22;26371;56.992;23.912;2023-09-19T19:26:38;15.60;99.90
40153;DHT22;26371;56.992;23.912;2023-09-19T19:29:07;15.60;99.90
40153;DHT22;26371;56.992;23.912;2023-09-19T19:31:36;15.60;99.90
40153;DHT22;26371;56.992;23.912;2023-09-19T19:34:05;15.60;99.90
40153;DHT22;26371;56.992;23.912;2023-09-19T19:36:35;15.60;99.90
40153;DHT22;26371;56.992;23.912;2023-09-19T19:39:04;15.50;99.90
40153;DHT22;26371;56.992;23.912;2023-09-19T19:41:34;15.50;99.90
40153;DHT22;26371;56.992;23.912;2023-09-19T19:44:07;15.50;99.90
40153;DHT22;26371;56.992;23.912;2023-09-19T19:46:36;15.50;99.90
40153;DHT22;26371;56.992;23.912;2023-09-19T19:49:05;15.50;99.90
40153;DHT22;26371;56.992;23.912;2023-09-19T19:51:36;15.50;99.90
40153;DHT22;26371;56.992;23.912;2023-09-19T19:54:05;15.40;99.90
40153;DHT22;26371;56.992;23.912;2023-09-19T19:56:34;15.40;99.90